Time;durP1;ratioP1;P1;durP2;ratioP2;P2;SDS_P1;SDS_P2;PMS_P1;PMS_P2;Temp;Humidity;BMP_temperature;BMP_pressure;BME280_temperature;BME280_humidity;BME280_pressure;Samples;Min_cycle;Max_cycle;Signal;HPM_P1;HPM_P2
2023/06/10 00:00:36;;;;;;;13.27;6.07;;;;;;;20.10;60.28;99252.53;4417459;32;20094;-85
2023/06/10 00:03:01;;;;;;;9.73;5.95;;;;;;;20.27;60.28;99247.72;4409091;32;20102;-85
2023/06/10 00:05:29;;;;;;;8.82;5.70;;;;;;;20.29;60.28;99246.63;4395322;32;20126;-85
2023/06/10 00:07:56;;;;;;;11.18;5.43;;;;;;;20.21;60.28;99246.41;4396888;32;20093;-84
2023/06/10 00:10:21;;;;;;;9.65;5.82;;;;;;;20.36;60.29;99241.72;4411179;32;20106;-84
2023/06/10 00:12:47;;;;;;;10.55;5.65;;;;;;;20.20;60.28;99240.31;4397806;32;20086;-85
2023/06/10 00:15:12;;;;;;;7.80;5.37;;;;;;;20.12;60.27;99233.94;4403421;32;20244;-84
2023/06/10 00:17:38;;;;;;;10.18;5.45;;;;;;;20.17;60.28;99235.25;4420544;32;20101;-86
2023/06/10 00:20:08;;;;;;;14.38;6.12;;;;;;;20.24;60.27;99243.53;4411736;32;20090;-85
2023/06/10 00:22:34;;;;;;;10.77;5.70;;;;;;;20.13;60.27;99243.56;4395182;32;20098;-84
2023/06/10 00:24:59;;;;;;;10.98;5.43;;;;;;;20.02;60.27;99240.91;4408819;32;20074;-84
2023/06/10 00:27:31;;;;;;;7.82;5.40;;;;;;;19.99;60.26;99235.88;4394883;32;20501;-84
2023/06/10 00:29:56;;;;;;;8.50;5.35;;;;;;;20.00;60.26;99233.09;4407550;32;20168;-84
2023/06/10 00:32:21;;;;;;;8.43;5.47;;;;;;;20.01;60.26;99239.22;4394807;32;20094;-83
2023/06/10 00:34:47;;;;;;;12.20;6.47;;;;;;;19.98;60.26;99234.19;4394118;32;28308;-84
2023/06/10 00:37:12;;;;;;;9.20;5.32;;;;;;;20.02;60.27;99235.62;4393994;32;34742;-84
2023/06/10 00:39:38;;;;;;;15.40;5.03;;;;;;;20.15;60.27;99234.53;4408915;32;20089;-84
2023/06/10 00:42:06;;;;;;;10.70;5.47;;;;;;;20.13;60.27;99244.41;4407918;32;20415;-82
2023/06/10 00:44:32;;;;;;;7.75;4.45;;;;;;;20.26;60.28;99243.41;4408620;32;20130;-84
2023/06/10 00:46:57;;;;;;;10.27;5.65;;;;;;;20.07;60.27;99246.66;4408318;32;20125;-84
2023/06/10 00:49:23;;;;;;;8.20;4.65;;;;;;;20.12;60.27;99248.00;4394303;32;20119;-84
2023/06/10 00:51:48;;;;;;;11.60;5.45;;;;;;;20.22;60.28;99242.81;4408624;32;20148;-84
2023/06/10 00:54:14;;;;;;;7.47;5.40;;;;;;;19.89;60.26;99247.16;4402139;32;20165;-84
2023/06/10 00:56:39;;;;;;;11.00;5.22;;;;;;;19.85;60.25;99247.50;4408712;32;20443;-84
2023/06/10 00:59:05;;;;;;;12.88;5.47;;;;;;;20.08;60.26;99243.91;4394802;32;20133;-84
2023/06/10 01:01:30;;;;;;;7.60;5.03;;;;;;;20.01;60.26;99249.78;4394814;32;20099;-84
2023/06/10 01:03:58;;;;;;;9.20;5.45;;;;;;;19.70;60.25;99252.19;4394071;32;20120;-84
2023/06/10 01:06:37;;;;;;;10.27;5.55;;;;;;;19.72;60.25;99245.00;4394741;32;20478;-84
2023/06/10 01:09:11;;;;;;;11.27;5.12;;;;;;;19.84;60.25;99249.31;4395065;32;20109;-84
2023/06/10 01:11:42;;;;;;;13.82;5.00;;;;;;;19.79;60.26;99254.13;4395297;32;20090;-84
2023/06/10 01:14:07;;;;;;;9.43;4.87;;;;;;;20.04;60.27;99249.56;4382554;32;20120;-84
2023/06/10 01:16:35;;;;;;;8.07;5.18;;;;;;;20.02;60.27;99247.03;4394420;32;20106;-84
2023/06/10 01:19:00;;;;;;;7.30;4.70;;;;;;;20.12;60.27;99245.38;4381980;32;20383;-84
2023/06/10 01:21:26;;;;;;;11.20;5.00;;;;;;;20.04;60.26;99241.63;4394335;32;20154;-84
2023/06/10 01:23:55;;;;;;;10.15;5.72;;;;;;;20.05;60.27;99244.16;4395141;32;20110;-84
2023/06/10 01:26:23;;;;;;;9.80;5.00;;;;;;;20.22;60.27;99248.09;4409139;32;20530;-86
2023/06/10 01:28:53;;;;;;;7.75;5.40;;;;;;;20.30;60.28;99245.69;4383915;32;20110;-84
2023/06/10 01:31:40;;;;;;;11.48;5.07;;;;;;;19.80;60.26;99249.66;4410320;32;20159;-83
2023/06/10 01:34:10;;;;;;;9.48;4.78;;;;;;;19.92;60.25;99252.22;4417628;32;20058;-83
2023/06/10 01:36:36;;;;;;;;;;;;;;;19.95;60.26;99247.66;4404374;32;20125;-84
2023/06/10 01:39:02;;;;;;;7.95;5.62;;;;;;;20.00;60.25;99243.69;4408249;32;19981;-84
2023/06/10 01:41:27;;;;;;;8.25;5.43;;;;;;;19.88;60.26;99250.78;4407634;32;20410;-83
2023/06/10 01:43:54;;;;;;;8.15;5.68;;;;;;;19.92;60.26;99254.00;4406380;32;28688;-84
2023/06/10 01:46:21;;;;;;;10.20;5.37;;;;;;;19.85;60.26;99245.72;4421713;32;20090;-83
2023/06/10 01:48:46;;;;;;;10.43;6.00;;;;;;;19.96;60.26;99244.03;4394957;32;20110;-84
2023/06/10 01:51:12;;;;;;;10.63;5.57;;;;;;;20.15;60.27;99249.56;4407360;32;20089;-85
2023/06/10 01:53:37;;;;;;;9.57;5.62;;;;;;;20.26;60.28;99248.69;4396973;32;32386;-84
2023/06/10 01:56:03;;;;;;;8.20;5.45;;;;;;;20.34;60.28;99240.97;4406151;32;20221;-85
2023/06/10 01:58:28;;;;;;;8.15;5.25;;;;;;;20.25;60.27;99245.22;4415868;32;20148;-85
2023/06/10 02:00:54;;;;;;;10.82;5.30;;;;;;;20.22;60.27;99245.47;4421067;32;20158;-85
2023/06/10 02:03:19;;;;;;;9.68;5.60;;;;;;;20.11;60.27;99243.69;4421526;32;20387;-84
2023/06/10 02:05:45;;;;;;;7.53;5.65;;;;;;;20.09;60.27;99242.09;4421083;32;20166;-83
2023/06/10 02:08:10;;;;;;;10.02;6.75;;;;;;;19.91;60.26;99237.31;4392169;32;20135;-84
2023/06/10 02:10:36;;;;;;;12.73;5.95;;;;;;;19.73;60.25;99240.56;4405895;32;28566;-85
2023/06/10 02:13:01;;;;;;;10.77;6.32;;;;;;;19.84;60.25;99241.38;4421056;32;20368;-85
2023/06/10 02:15:27;;;;;;;10.73;6.28;;;;;;;19.66;60.25;99242.84;4404421;32;27445;-84
2023/06/10 02:17:52;;;;;;;11.57;6.62;;;;;;;19.75;60.25;99244.75;4425309;32;30297;-83
2023/06/10 02:20:18;;;;;;;11.57;6.75;;;;;;;19.73;60.25;99249.31;4413030;32;20473;-84
2023/06/10 02:22:43;;;;;;;11.05;6.10;;;;;;;19.75;60.25;99252.69;4408315;32;20137;-85
2023/06/10 02:25:09;;;;;;;10.30;6.40;;;;;;;19.70;60.25;99254.84;4423418;32;20855;-84
2023/06/10 02:27:34;;;;;;;11.55;6.18;;;;;;;19.72;60.25;99254.72;4409129;32;20098;-85
2023/06/10 02:29:59;;;;;;;8.30;5.55;;;;;;;19.82;60.25;99255.69;4393634;32;27031;-85
2023/06/10 02:32:25;;;;;;;12.43;5.95;;;;;;;19.68;60.24;99246.19;4391755;32;32172;-85
2023/06/10 02:34:50;;;;;;;6.20;5.05;;;;;;;19.63;60.25;99249.16;4400234;32;20094;-84
2023/06/10 02:37:16;;;;;;;8.20;5.20;;;;;;;19.52;60.24;99245.66;4421924;32;20185;-83
2023/06/10 02:39:42;;;;;;;10.48;5.93;;;;;;;19.59;60.24;99250.38;4385647;32;20097;-84
2023/06/10 02:42:07;;;;;;;9.13;5.32;;;;;;;19.63;60.25;99246.53;4420021;32;35038;-84
2023/06/10 02:44:32;;;;;;;7.68;5.07;;;;;;;19.60;60.24;99244.13;4403098;32;20410;-84
2023/06/10 02:46:58;;;;;;;8.65;5.37;;;;;;;19.52;60.24;99246.50;4423169;32;20120;-85
2023/06/10 02:49:23;;;;;;;8.40;5.68;;;;;;;19.32;60.23;99252.44;4422737;32;21386;-85
2023/06/10 02:51:53;;;;;;;9.07;5.05;;;;;;;19.30;60.22;99254.37;4406392;32;20173;-85
2023/06/10 02:54:19;;;;;;;11.27;5.82;;;;;;;19.42;60.23;99257.91;4416720;32;20117;-85
2023/06/10 02:56:45;;;;;;;8.40;5.57;;;;;;;19.54;60.24;99259.59;4406864;32;20102;-85
2023/06/10 02:59:11;;;;;;;6.95;5.05;;;;;;;19.73;60.25;99262.53;4417564;32;20089;-84
2023/06/10 03:01:37;;;;;;;9.15;5.65;;;;;;;19.74;60.24;99261.56;4395259;32;20465;-84
2023/06/10 03:04:04;;;;;;;9.88;4.65;;;;;;;19.39;60.24;99266.00;4419620;32;20129;-84
2023/06/10 03:06:29;;;;;;;8.32;5.87;;;;;;;19.46;60.23;99261.97;4409341;32;20128;-85
2023/06/10 03:08:55;;;;;;;8.65;5.78;;;;;;;19.44;60.23;99253.34;4422225;32;20153;-85
2023/06/10 03:11:20;;;;;;;9.07;5.45;;;;;;;19.29;60.22;99268.53;4434128;32;20105;-84
2023/06/10 03:13:46;;;;;;;11.73;6.53;;;;;;;19.25;60.23;99270.56;4411839;32;20133;-84
2023/06/10 03:16:12;;;;;;;8.45;4.80;;;;;;;19.54;60.24;99251.69;4384660;32;20141;-84
2023/06/10 03:18:37;;;;;;;6.37;4.78;;;;;;;19.33;60.23;99265.53;4385006;32;20089;-84
2023/06/10 03:21:03;;;;;;;11.02;5.18;;;;;;;19.29;60.22;99264.09;4397464;32;20140;-85
2023/06/10 03:23:28;;;;;;;6.60;4.20;;;;;;;19.28;60.22;99269.47;4397676;32;20093;-84
2023/06/10 03:25:54;;;;;;;7.30;4.53;;;;;;;19.14;60.22;99254.69;4424449;32;20158;-84
2023/06/10 03:28:21;;;;;;;6.68;4.87;;;;;;;19.27;60.23;99266.00;4424048;32;20413;-84
2023/06/10 03:30:47;;;;;;;7.95;4.40;;;;;;;19.28;60.23;99262.41;4410565;32;20147;-84
2023/06/10 03:33:12;;;;;;;6.68;3.92;;;;;;;19.49;60.24;99264.38;4411161;32;20190;-84
2023/06/10 03:35:37;;;;;;;9.63;3.97;;;;;;;19.30;60.22;99262.28;4424369;32;20108;-85
2023/06/10 03:38:03;;;;;;;7.45;3.87;;;;;;;19.46;60.23;99264.63;4423991;32;20168;-85
2023/06/10 03:40:30;;;;;;;7.07;4.28;;;;;;;19.53;60.24;99268.47;4397324;32;20423;-85
2023/06/10 03:42:55;;;;;;;7.05;3.92;;;;;;;19.66;60.25;99263.97;4399440;32;20106;-85
2023/06/10 03:45:21;;;;;;;5.55;3.80;;;;;;;19.61;60.23;99272.22;4417862;32;20129;-85
2023/06/10 03:47:47;;;;;;;4.85;3.42;;;;;;;19.60;60.24;99274.97;4410559;32;20128;-85
2023/06/10 03:50:13;;;;;;;4.55;3.40;;;;;;;19.73;60.25;99281.00;4409959;32;20120;-85
2023/06/10 03:52:39;;;;;;;4.10;3.47;;;;;;;19.88;60.25;99277.19;4424292;32;20199;-85
2023/06/10 03:55:05;;;;;;;5.87;3.80;;;;;;;20.02;60.27;99272.62;4412621;32;20128;-85
2023/06/10 03:57:30;;;;;;;4.62;3.60;;;;;;;19.97;60.26;99272.97;4424060;32;20090;-86
2023/06/10 03:59:56;;;;;;;4.78;3.47;;;;;;;20.06;60.26;99266.97;4397594;32;20085;-85
2023/06/10 04:02:22;;;;;;;6.15;3.10;;;;;;;20.12;60.27;99270.94;4424049;32;20158;-85
2023/06/10 04:04:47;;;;;;;4.70;3.20;;;;;;;20.30;60.28;99261.53;4410310;32;20101;-85
2023/06/10 04:07:13;;;;;;;12.25;4.00;;;;;;;20.22;60.27;99253.37;4423958;32;20085;-85
2023/06/10 04:09:39;;;;;;;4.68;3.83;;;;;;;20.32;60.28;99254.31;4424232;32;20133;-85
2023/06/10 04:12:06;;;;;;;4.12;3.47;;;;;;;20.61;60.29;99256.47;4396342;32;36426;-85
2023/06/10 04:14:31;;;;;;;4.90;3.75;;;;;;;20.81;60.31;99253.03;4425156;32;20450;-85
2023/06/10 04:16:57;;;;;;;4.30;3.65;;;;;;;20.90;60.31;99251.44;4427266;32;20140;-84
2023/06/10 04:19:22;;;;;;;10.55;4.40;;;;;;;21.03;60.31;99246.78;4417013;32;20113;-86
2023/06/10 04:21:47;;;;;;;6.82;4.18;;;;;;;21.14;60.32;99252.91;4425876;32;20082;-86
2023/06/10 04:24:13;;;;;;;6.15;4.37;;;;;;;21.07;60.32;99246.44;4439010;32;20109;-85
2023/06/10 04:26:38;;;;;;;7.72;3.30;;;;;;;21.03;60.32;99249.44;4424311;32;29084;-85
2023/06/10 04:29:04;;;;;;;7.20;3.42;;;;;;;21.43;60.34;99245.16;4424763;32;20093;-85
2023/06/10 04:31:30;;;;;;;5.57;3.78;;;;;;;21.52;60.35;99248.84;4409857;32;20171;-84
2023/06/10 04:33:55;;;;;;;6.22;3.78;;;;;;;21.42;60.33;99251.44;4423751;32;20123;-85
2023/06/10 04:36:21;;;;;;;4.93;3.37;;;;;;;21.17;60.32;99248.31;4409841;32;20165;-85
2023/06/10 04:38:46;;;;;;;5.62;3.35;;;;;;;21.26;60.33;99245.75;4408321;32;26626;-85
2023/06/10 04:41:12;;;;;;;4.72;3.87;;;;;;;21.38;60.33;99246.53;4423712;32;20183;-85
2023/06/10 04:43:38;;;;;;;6.65;3.55;;;;;;;21.32;60.33;99250.56;4423964;32;20115;-85
2023/06/10 04:46:04;;;;;;;4.53;3.72;;;;;;;21.59;60.35;99241.22;4410123;32;20082;-84
2023/06/10 04:48:29;;;;;;;6.80;3.58;;;;;;;21.51;60.34;99244.50;4409853;32;20234;-85
2023/06/10 04:50:56;;;;;;;5.75;3.70;;;;;;;21.54;60.34;99249.56;4412115;32;20193;-85
2023/06/10 04:53:21;;;;;;;5.12;3.80;;;;;;;21.40;60.33;99244.59;4409861;32;20117;-85
2023/06/10 04:55:48;;;;;;;7.50;3.40;;;;;;;21.62;60.34;99249.75;4396722;32;29197;-86
2023/06/10 04:58:32;;;;;;;7.85;3.40;;;;;;;21.50;60.35;99253.44;4409986;32;20077;-85
2023/06/10 05:00:57;;;;;;;4.90;3.65;;;;;;;21.66;60.35;99245.87;4423454;32;21559;-85
2023/06/10 05:03:23;;;;;;;6.90;3.40;;;;;;;21.73;60.35;99244.34;4409853;32;20147;-85
2023/06/10 05:05:48;;;;;;;5.12;3.65;;;;;;;21.88;60.36;99241.38;4409723;32;20112;-86
2023/06/10 05:08:14;;;;;;;7.30;3.60;;;;;;;21.69;60.35;99242.94;4427454;32;20081;-86
2023/06/10 05:10:39;;;;;;;6.55;3.50;;;;;;;21.84;60.36;99253.22;4429226;32;20153;-85
2023/06/10 05:13:04;;;;;;;4.68;3.87;;;;;;;22.16;60.37;99251.25;4409903;32;20101;-86
2023/06/10 05:15:30;;;;;;;4.75;3.75;;;;;;;22.24;60.37;99247.94;4409352;32;20108;-86
2023/06/10 05:17:59;;;;;;;6.65;4.03;;;;;;;22.34;60.39;99248.81;4409296;32;20434;-87
2023/06/10 05:20:25;;;;;;;6.30;3.50;;;;;;;22.39;60.38;99259.84;4409135;32;20113;-86
2023/06/10 05:22:51;;;;;;;4.25;3.60;;;;;;;22.50;60.39;99251.78;4423201;32;20131;-86
2023/06/10 05:25:16;;;;;;;3.53;2.83;;;;;;;22.80;60.40;99253.50;4423197;32;20434;-86
2023/06/10 05:30:26;;;;;;;5.62;3.55;;;;;;;22.99;60.42;99258.00;4411952;32;20160;-87
2023/06/10 05:32:52;;;;;;;9.75;4.20;;;;;;;22.85;60.41;99263.72;4396892;32;20433;-85
2023/06/10 05:35:18;;;;;;;5.68;4.25;;;;;;;22.93;60.41;99264.69;4409132;32;20077;-85
2023/06/10 05:37:44;;;;;;;7.50;5.10;;;;;;;23.06;60.42;99260.94;4409370;32;20421;-86
2023/06/10 05:40:10;;;;;;;6.62;4.90;;;;;;;23.28;60.43;99256.16;4423651;32;20206;-86
2023/06/10 05:42:35;;;;;;;5.47;4.50;;;;;;;23.25;60.43;99250.31;4423407;32;20106;-86
2023/06/10 05:45:02;;;;;;;7.30;4.32;;;;;;;23.48;60.44;99251.66;4408937;32;20163;-87
2023/06/10 05:47:27;;;;;;;4.12;3.70;;;;;;;23.66;60.44;99251.81;4423122;32;20140;-85
2023/06/10 05:49:53;;;;;;;4.90;4.07;;;;;;;23.85;60.46;99253.53;4409550;32;20117;-85
2023/06/10 05:52:18;;;;;;;5.85;3.45;;;;;;;24.23;60.48;99249.88;4410557;32;27289;-85
2023/06/10 05:54:44;;;;;;;6.32;3.72;;;;;;;24.44;60.50;99245.16;4411358;32;20105;-85
2023/06/10 05:57:10;;;;;;;7.10;3.50;;;;;;;24.61;60.50;99250.69;4410910;32;20129;-84
2023/06/10 05:59:35;;;;;;;4.05;3.40;;;;;;;24.75;60.50;99247.47;4425070;32;20102;-85
2023/06/10 06:02:01;;;;;;;4.68;3.17;;;;;;;24.63;60.50;99249.53;4411126;32;20097;-84
2023/06/10 06:04:26;;;;;;;6.80;2.95;;;;;;;24.73;60.50;99252.13;4410541;32;20140;-82
2023/06/10 06:06:51;;;;;;;4.68;3.35;;;;;;;24.65;60.50;99247.56;4399955;32;20132;-84
2023/06/10 06:09:17;;;;;;;2.67;2.45;;;;;;;24.63;60.50;99249.53;4424484;32;20137;-84
2023/06/10 06:11:42;;;;;;;8.18;2.95;;;;;;;24.55;60.49;99251.25;4410624;32;20105;-85
2023/06/10 06:14:08;;;;;;;3.92;2.80;;;;;;;24.45;60.50;99251.31;4410337;32;25012;-84
2023/06/10 06:16:33;;;;;;;5.80;2.75;;;;;;;24.24;60.48;99251.56;4424856;32;20108;-85
2023/06/10 06:18:59;;;;;;;2.70;1.80;;;;;;;24.17;60.47;99250.47;4424826;32;20121;-84
2023/06/10 06:21:24;;;;;;;3.62;2.92;;;;;;;24.30;60.49;99253.63;4424815;32;20116;-84
2023/06/10 06:23:50;;;;;;;6.10;2.90;;;;;;;24.41;60.48;99255.28;4398229;32;20090;-84
2023/06/10 06:26:15;;;;;;;3.80;2.45;;;;;;;23.96;60.46;99261.34;4424958;32;20129;-85
2023/06/10 06:28:40;;;;;;;3.87;2.65;;;;;;;23.97;60.46;99257.69;4412765;32;22610;-84
2023/06/10 06:31:06;;;;;;;5.82;2.50;;;;;;;23.98;60.47;99262.03;4410102;32;34564;-84
2023/06/10 06:33:32;;;;;;;3.42;2.58;;;;;;;23.84;60.46;99270.47;4403499;32;20058;-84
2023/06/10 06:35:57;;;;;;;5.97;3.50;;;;;;;23.96;60.46;99265.81;4415459;32;20128;-84
2023/06/10 06:38:23;;;;;;;2.87;2.28;;;;;;;23.98;60.46;99271.81;4424945;32;20388;-83
2023/06/10 06:40:48;;;;;;;3.40;2.40;;;;;;;23.96;60.47;99273.78;4410312;32;33225;-84
2023/06/10 06:43:13;;;;;;;3.40;2.58;;;;;;;24.27;60.48;99272.53;4410678;32;20111;-84
2023/06/10 06:45:39;;;;;;;3.03;2.30;;;;;;;24.57;60.50;99271.41;4397987;32;20125;-85
2023/06/10 06:48:05;;;;;;;3.78;2.58;;;;;;;24.58;60.50;99274.91;4424680;32;20160;-84
2023/06/10 06:50:30;;;;;;;3.42;2.20;;;;;;;24.95;60.52;99269.47;4410711;32;20403;-83
2023/06/10 06:52:56;;;;;;;3.37;2.40;;;;;;;25.05;60.52;99263.09;4397892;32;20521;-83
2023/06/10 06:55:21;;;;;;;7.00;2.45;;;;;;;25.24;60.53;99267.41;4410677;32;20095;-83
2023/06/10 06:57:46;;;;;;;3.20;2.42;;;;;;;25.57;60.55;99265.00;4424510;32;20256;-85
2023/06/10 07:00:12;;;;;;;8.90;3.00;;;;;;;25.67;60.56;99260.44;4410110;32;20816;-84
2023/06/10 07:02:37;;;;;;;3.12;2.83;;;;;;;25.62;60.55;99262.72;4410158;32;20419;-84
2023/06/10 07:05:03;;;;;;;3.12;2.42;;;;;;;25.78;60.56;99261.97;4424017;32;23705;-84
2023/06/10 07:07:28;;;;;;;2.95;2.65;;;;;;;25.86;60.56;99264.72;4424512;32;20082;-84
2023/06/10 07:09:54;;;;;;;5.45;3.05;;;;;;;25.90;60.57;99258.91;4398113;32;20129;-84
2023/06/10 07:12:23;;;;;;;6.28;3.40;;;;;;;26.08;60.57;99264.16;4397711;32;20113;-84
2023/06/10 07:14:49;;;;;;;6.30;2.45;;;;;;;26.40;60.59;99255.47;4424499;32;20077;-84
2023/06/10 07:17:14;;;;;;;12.45;4.90;;;;;;;26.46;60.59;99253.97;4412169;32;20131;-83
2023/06/10 07:19:40;;;;;;;5.82;3.37;;;;;;;26.45;60.60;99254.97;4410622;32;20507;-82
2023/06/10 07:22:05;;;;;;;6.30;3.28;;;;;;;26.54;60.60;99259.38;4424909;32;20111;-82
2023/06/10 07:24:31;;;;;;;10.93;3.00;;;;;;;26.46;60.59;99260.16;4413540;32;20142;-83
2023/06/10 07:26:56;;;;;;;4.57;3.03;;;;;;;26.59;60.60;99267.72;4423974;32;20482;-84
2023/06/10 07:29:22;;;;;;;6.00;2.90;;;;;;;26.81;60.62;99266.25;4424421;32;20117;-84
2023/06/10 07:31:47;;;;;;;5.78;2.92;;;;;;;26.99;60.63;99258.97;4410301;32;20086;-84
2023/06/10 07:34:12;;;;;;;7.85;3.03;;;;;;;26.85;60.62;99265.75;4397804;32;20082;-84
2023/06/10 07:36:38;;;;;;;11.23;3.50;;;;;;;26.77;60.61;99264.94;4424531;32;20367;-83
2023/06/10 07:39:04;;;;;;;6.57;3.87;;;;;;;26.53;60.60;99268.38;4424397;32;20137;-84
2023/06/10 07:41:29;;;;;;;10.13;3.92;;;;;;;26.35;60.59;99264.97;4397644;32;20457;-83
2023/06/10 07:43:55;;;;;;;7.75;3.72;;;;;;;26.22;60.59;99276.87;4423873;32;32370;-83
2023/06/10 07:46:22;;;;;;;6.32;3.50;;;;;;;26.18;60.59;99280.03;4385657;32;20106;-84
2023/06/10 07:48:47;;;;;;;5.68;3.47;;;;;;;26.20;60.59;99272.72;4410401;32;20093;-84
2023/06/10 07:51:13;;;;;;;6.15;3.42;;;;;;;26.33;60.59;99269.59;4424299;32;20146;-84
2023/06/10 07:53:38;;;;;;;4.65;3.10;;;;;;;26.42;60.60;99269.50;4410234;32;20129;-84
2023/06/10 07:56:04;;;;;;;7.37;3.45;;;;;;;26.68;60.61;99271.22;4424395;32;20146;-83
2023/06/10 07:58:29;;;;;;;5.03;3.78;;;;;;;26.88;60.63;99268.09;4412036;32;20128;-83
2023/06/10 08:00:55;;;;;;;4.47;3.15;;;;;;;27.10;60.63;99279.16;4400212;32;20134;-84
2023/06/10 08:03:20;;;;;;;3.20;2.90;;;;;;;27.28;60.65;99271.84;4410544;32;20153;-83
2023/06/10 08:05:45;;;;;;;6.78;3.10;;;;;;;27.13;60.64;99277.00;4426701;32;20129;-84
2023/06/10 08:08:11;;;;;;;4.47;3.37;;;;;;;27.06;60.63;99272.50;4424144;32;20081;-83
2023/06/10 08:10:36;;;;;;;5.10;3.37;;;;;;;27.18;60.63;99273.81;4423489;32;29247;-83
2023/06/10 08:13:02;;;;;;;7.32;3.62;;;;;;;27.27;60.64;99269.34;4396481;32;20110;-83
2023/06/10 08:15:27;;;;;;;5.00;3.58;;;;;;;27.29;60.65;99270.00;4409717;32;20137;-84
2023/06/10 08:17:52;;;;;;;4.30;2.87;;;;;;;27.27;60.63;99269.34;4423966;32;20232;-84
2023/06/10 08:20:18;;;;;;;4.32;3.25;;;;;;;27.19;60.65;99270.97;4409937;32;20153;-84
2023/06/10 08:22:43;;;;;;;5.40;3.37;;;;;;;27.19;60.63;99270.16;4424114;32;20122;-84
2023/06/10 08:25:09;;;;;;;3.65;2.60;;;;;;;27.21;60.64;99266.34;4423976;32;20328;-82
2023/06/10 08:27:35;;;;;;;3.15;2.85;;;;;;;27.42;60.65;99270.31;4410037;32;20125;-84
2023/06/10 08:30:00;;;;;;;5.43;2.80;;;;;;;27.17;60.64;99262.31;4424180;32;20158;-83
2023/06/10 08:32:26;;;;;;;5.22;3.17;;;;;;;27.33;60.64;99261.47;4424139;32;20082;-84
2023/06/10 08:34:51;;;;;;;3.80;2.85;;;;;;;27.39;60.65;99263.47;4397266;32;20149;-83
2023/06/10 08:37:16;;;;;;;3.35;3.05;;;;;;;27.24;60.64;99264.31;4410595;32;20116;-84
2023/06/10 08:39:42;;;;;;;3.15;2.85;;;;;;;27.36;60.65;99260.28;4409953;32;22738;-83
2023/06/10 08:42:19;;;;;;;3.20;2.80;;;;;;;27.25;60.64;99268.66;4424681;32;20090;-84
2023/06/10 08:44:46;;;;;;;4.30;2.90;;;;;;;27.21;60.65;99254.81;4423953;32;20461;-84
2023/06/10 08:47:16;;;;;;;3.47;2.58;;;;;;;27.35;60.66;99263.97;4409950;32;20556;-83
2023/06/10 08:49:44;;;;;;;4.70;3.65;;;;;;;27.46;60.66;99256.47;4410051;32;20473;-83
2023/06/10 08:52:09;;;;;;;4.80;3.12;;;;;;;27.57;60.66;99257.09;4397292;32;20081;-84
2023/06/10 08:54:37;;;;;;;3.30;3.00;;;;;;;27.94;60.67;99245.84;4397283;32;20128;-83
2023/06/10 08:57:06;;;;;;;3.72;2.87;;;;;;;27.96;60.67;99247.34;4410233;32;20117;-83
2023/06/10 08:59:31;;;;;;;5.28;3.15;;;;;;;28.34;60.70;99244.88;4397599;32;20458;-84
2023/06/10 09:01:57;;;;;;;2.75;2.30;;;;;;;28.54;60.71;99234.56;4425886;32;20074;-84
2023/06/10 09:04:24;;;;;;;5.78;2.97;;;;;;;28.77;60.71;99230.06;4397250;32;20163;-84
2023/06/10 09:06:49;;;;;;;3.08;2.78;;;;;;;28.98;60.73;99227.59;4409810;32;20128;-84
2023/06/10 09:09:15;;;;;;;4.20;2.95;;;;;;;29.25;60.75;99231.53;4384594;32;20093;-84
2023/06/10 09:11:43;;;;;;;3.97;2.55;;;;;;;29.42;60.76;99234.91;4409619;32;20120;-84
2023/06/10 09:14:09;;;;;;;4.57;2.95;;;;;;;29.64;60.76;99230.53;4384712;32;20700;-84
2023/06/10 09:16:34;;;;;;;4.47;2.80;;;;;;;29.70;60.76;99223.59;4423779;32;20120;-83
2023/06/10 09:19:00;;;;;;;4.57;3.25;;;;;;;29.49;60.75;99227.81;4423360;32;21047;-84
2023/06/10 09:21:25;;;;;;;3.50;3.17;;;;;;;29.57;60.77;99216.16;4409709;32;20109;-83
2023/06/10 09:23:50;;;;;;;3.97;3.58;;;;;;;29.60;60.77;99221.19;4428275;32;20152;-83
2023/06/10 09:26:16;;;;;;;3.65;2.92;;;;;;;29.54;60.76;99214.69;4410660;32;20383;-84
2023/06/10 09:28:43;;;;;;;3.62;3.17;;;;;;;29.33;60.76;99212.69;4423369;32;20124;-83
2023/06/10 09:31:09;;;;;;;4.47;3.30;;;;;;;29.22;60.75;99210.47;4423243;32;20112;-84
2023/06/10 09:33:38;;;;;;;2.60;2.40;;;;;;;29.24;60.75;99221.00;4409369;32;20122;-84
2023/06/10 09:36:03;;;;;;;3.30;2.15;;;;;;;29.08;60.74;99223.81;4396732;32;20105;-84
2023/06/10 09:38:30;;;;;;;3.72;2.97;;;;;;;28.72;60.72;99219.03;4408759;32;20460;-83
2023/06/10 09:40:55;;;;;;;3.33;2.70;;;;;;;28.26;60.70;99218.97;4396477;32;20174;-83
2023/06/10 09:43:21;;;;;;;6.30;2.42;;;;;;;27.80;60.68;99217.97;4423248;32;20281;-83
2023/06/10 09:45:52;;;;;;;2.47;2.03;;;;;;;27.68;60.67;99222.87;4408707;32;20129;-84
2023/06/10 09:48:18;;;;;;;2.78;2.35;;;;;;;27.35;60.67;99223.87;4409156;32;20094;-83
2023/06/10 09:50:44;;;;;;;2.70;2.00;;;;;;;27.85;60.68;99218.28;4396510;32;20118;-83
2023/06/10 09:53:10;;;;;;;2.90;2.33;;;;;;;27.94;60.69;99217.25;4409163;32;20141;-83
2023/06/10 09:55:37;;;;;;;3.42;2.10;;;;;;;28.16;60.70;99215.66;4409259;32;20244;-83
2023/06/10 09:58:03;;;;;;;2.22;2.03;;;;;;;28.23;60.70;99208.59;4425276;32;20051;-84
2023/06/10 10:00:32;;;;;;;4.68;2.53;;;;;;;28.35;60.71;99211.72;4408392;32;20113;-85
2023/06/10 10:02:57;;;;;;;3.25;2.25;;;;;;;28.19;60.70;99209.97;4396426;32;20105;-83
2023/06/10 10:05:22;;;;;;;4.05;2.78;;;;;;;28.04;60.69;99217.03;4422040;32;30585;-84
2023/06/10 10:07:48;;;;;;;3.60;2.50;;;;;;;27.74;60.67;99221.34;4422760;32;20082;-83
2023/06/10 10:10:14;;;;;;;3.62;2.72;;;;;;;27.53;60.68;99222.69;4395999;32;20359;-84
2023/06/10 10:12:40;;;;;;;6.45;2.80;;;;;;;27.26;60.65;99220.41;4422568;32;20151;-83
2023/06/10 10:15:08;;;;;;;3.35;2.35;;;;;;;27.18;60.66;99221.22;4408767;32;20110;-83
2023/06/10 10:17:34;;;;;;;3.12;2.30;;;;;;;27.10;60.64;99221.22;4408631;32;20094;-83
2023/06/10 10:20:03;;;;;;;5.72;3.12;;;;;;;27.21;60.66;99220.91;4410804;32;20089;-83
2023/06/10 10:22:31;;;;;;;2.83;2.30;;;;;;;27.20;60.66;99218.38;4422637;32;20536;-84
2023/06/10 10:24:57;;;;;;;5.12;2.58;;;;;;;27.15;60.65;99220.72;4422637;32;20116;-83
2023/06/10 10:28:13;;;;;;;4.55;2.40;;;;;;;27.03;60.65;99228.25;4408586;32;20149;-83
2023/06/10 10:30:41;;;;;;;3.15;2.37;;;;;;;27.16;60.65;99217.88;4334433;32;20614;-82
2023/06/10 10:33:13;;;;;;;2.50;2.30;;;;;;;27.12;60.65;99216.56;4390141;32;20127;-84
2023/06/10 10:35:38;;;;;;;3.00;2.33;;;;;;;27.16;60.65;99211.69;4421681;32;20166;-83
2023/06/10 10:38:03;;;;;;;2.87;2.12;;;;;;;27.32;60.65;99216.22;4409668;32;20090;-84
2023/06/10 10:40:29;;;;;;;4.82;2.47;;;;;;;27.57;60.66;99206.31;4397585;32;36538;-83
2023/06/10 10:42:56;;;;;;;2.72;2.53;;;;;;;27.81;60.67;99206.25;4397831;32;20145;-83
2023/06/10 10:45:21;;;;;;;7.57;5.00;;;;;;;27.81;60.69;99207.09;4410585;32;20462;-85
2023/06/10 10:47:47;;;;;;;9.80;6.70;;;;;;;27.92;60.69;99207.72;4424666;32;20223;-85
2023/06/10 10:50:17;;;;;;;9.38;8.25;;;;;;;27.94;60.68;99206.56;4403784;32;20101;-84
2023/06/10 10:52:56;;;;;;;10.70;8.80;;;;;;;27.75;60.68;99207.78;4398115;32;20131;-84
2023/06/10 10:55:23;;;;;;;14.50;7.53;;;;;;;27.68;60.68;99204.16;4409545;32;20110;-83
2023/06/10 10:58:02;;;;;;;9.18;7.97;;;;;;;27.69;60.68;99203.16;4397110;32;20501;-85
2023/06/10 11:00:31;;;;;;;14.32;8.18;;;;;;;27.54;60.67;99202.13;4423706;32;20081;-84
2023/06/10 11:03:02;;;;;;;8.95;8.02;;;;;;;27.60;60.68;99201.44;4424664;32;20132;-84
2023/06/10 11:05:38;;;;;;;9.35;7.90;;;;;;;27.59;60.68;99197.09;4424581;32;20090;-84
2023/06/10 11:08:03;;;;;;;60.15;17.92;;;;;;;27.65;60.67;99191.09;4424418;32;20158;-83
2023/06/10 11:10:36;;;;;;;9.85;7.57;;;;;;;27.69;60.67;99187.09;4410567;32;20115;-84
2023/06/10 11:13:14;;;;;;;8.60;7.70;;;;;;;27.74;60.67;99187.41;4411326;32;20143;-83
2023/06/10 11:15:47;;;;;;;8.82;6.90;;;;;;;27.58;60.66;99183.91;4414415;32;20109;-84
2023/06/10 11:18:32;;;;;;;18.87;8.35;;;;;;;27.80;60.68;99178.69;4424266;32;20094;-84
2023/06/10 11:21:04;;;;;;;7.60;6.28;;;;;;;28.10;60.70;99170.84;4410716;32;20173;-85
2023/06/10 11:23:33;;;;;;;7.70;6.90;;;;;;;28.03;60.69;99172.56;4397809;32;20140;-84
2023/06/10 11:26:26;;;;;;;8.15;6.82;;;;;;;27.99;60.70;99171.25;4424345;32;20458;-84
2023/06/10 11:28:55;;;;;;;7.57;6.65;;;;;;;28.26;60.70;99178.00;4410351;32;20098;-84
2023/06/10 11:31:33;;;;;;;20.40;8.55;;;;;;;28.22;60.71;99179.34;4424103;32;20086;-84